Terminal Aerodrome Forecast
Issued by NWS Miami, FL

Home | Current Version | Previous Version | Text Only | Print | Product List | Glossary On
Versions: 1 2 3 4 5 6 7 8 9 10 11 12 13 14 15 16 17 18 19 20 21 22 23 24 25 26 27 28 29 30 31 32 33 34 35 36 37 38 39 40 41 42 43 44 45 46 47 48 49 50
000
FTUS42 KMFL 241736
TAFPBI
TAF
KPBI 241736Z 2418/2518 14008KT P6SM VCTS SCT035CB SCT080 BKN120
      TEMPO 2418/2420 24010KT
     FM242100 14008KT P6SM FEW035 SCT100 BKN250
     FM250000 VRB03KT P6SM FEW025 SCT250
     FM251500 15008KT P6SM VCSH SCT025 SCT250=

USA.gov is the U.S. government's official web portal to all federal, state and local government web resources and services.